Terminal Aerodrome Forecast
Issued by NWS Melbourne, FL

Home | Current Version | Previous Version | Text Only | Print | Product List | Glossary On
Versions: 1 2 3 4 5 6 7 8 9 10 11 12 13 14 15 16 17 18 19 20 21 22 23
000
FTUS42 KMLB 030500
TAFMCO
TAF
KMCO 030534Z 0306/0406 VRB03KT P6SM SCT250
     FM031900 12008KT P6SM VCTS SCT050CB SCT250
     FM032300 11011KT P6SM SCT050 SCT080 BKN250
     FM040200 14003KT P6SM FEW040 SCT250=

USA.gov is the U.S. government's official web portal to all federal, state and local government web resources and services.